createdAt,value
2023-03-06T00:00:47.374Z,101418.84
2023-03-06T00:03:17.689Z,101419.91
2023-03-06T00:05:48.882Z,101425.47
2023-03-06T00:08:19.072Z,101428.16
2023-03-06T00:10:49.276Z,101433.53
2023-03-06T00:13:22.940Z,101437.91
2023-03-06T00:15:53.188Z,101441.47
2023-03-06T00:18:23.377Z,101446.28
2023-03-06T00:20:53.719Z,101442.56
2023-03-06T00:23:23.940Z,101444.91
2023-03-06T00:25:54.078Z,101442.81
2023-03-06T00:28:24.247Z,101446.19
2023-03-06T00:30:54.487Z,101455.59
2023-03-06T00:33:24.693Z,101450.84
2023-03-06T00:35:57.269Z,101448.81
2023-03-06T00:38:29.979Z,101452.19
2023-03-06T00:41:00.504Z,101458.22
2023-03-06T00:43:31.770Z,101460.94
2023-03-06T00:46:02.025Z,101467.97
2023-03-06T00:48:32.156Z,101467.59
2023-03-06T00:51:02.633Z,101463.88
2023-03-06T00:53:32.876Z,101470.97
2023-03-06T00:56:03.251Z,101472.63
2023-03-06T00:58:38.656Z,101478.84
2023-03-06T01:01:09.002Z,101470.59
2023-03-06T01:03:39.494Z,101482.84
2023-03-06T01:06:09.805Z,101480.16
2023-03-06T01:08:40.028Z,101477.25
2023-03-06T01:11:10.278Z,101477.91
2023-03-06T01:13:40.517Z,101483.97
2023-03-06T01:16:11.777Z,101480.25
2023-03-06T01:18:42.545Z,101475.69
2023-03-06T01:21:12.868Z,101481.72
2023-03-06T01:23:43.633Z,101482.38
2023-03-06T01:26:13.926Z,101483.22
2023-03-06T01:28:44.671Z,101486.56
2023-03-06T01:31:14.952Z,101489.91
2023-03-06T01:33:45.363Z,101493.25
2023-03-06T01:36:17.464Z,101489.56
2023-03-06T01:38:48.636Z,101495.56
2023-03-06T01:41:19.616Z,101496.22
2023-03-06T01:43:50.359Z,101504.97
2023-03-06T01:46:20.564Z,101497.50
2023-03-06T01:48:52.000Z,101510.00
2023-03-06T01:51:23.006Z,101519.56
2023-03-06T01:53:54.602Z,101528.34
2023-03-06T01:56:26.427Z,101520.03
2023-03-06T01:58:56.680Z,101532.31
2023-03-06T02:01:27.214Z,101535.84
2023-03-06T02:03:57.579Z,101539.19
2023-03-06T02:06:27.820Z,101534.47
2023-03-06T02:08:58.418Z,101540.47
2023-03-06T02:11:29.119Z,101539.50
2023-03-06T02:13:59.443Z,101541.81
2023-03-06T02:16:31.294Z,101542.66
2023-03-06T02:19:03.849Z,101546.84
2023-03-06T02:21:36.124Z,101543.13
2023-03-06T02:24:35.684Z,101548.13
2023-03-06T02:27:07.204Z,101555.22
2023-03-06T02:29:38.424Z,101546.75
2023-03-06T02:32:09.056Z,101549.25
2023-03-06T02:34:39.257Z,101556.13
2023-03-06T02:37:10.516Z,101548.69
2023-03-06T02:39:43.512Z,101547.66
2023-03-06T02:42:19.458Z,101542.06
2023-03-06T02:44:50.513Z,101540.84
2023-03-06T02:47:20.894Z,101538.81
2023-03-06T02:49:51.200Z,101525.94
2023-03-06T02:52:21.721Z,101535.53
2023-03-06T02:54:52.060Z,101530.94
2023-03-06T02:57:22.887Z,101528.91
2023-03-06T02:59:53.585Z,101533.09
2023-03-06T03:02:23.855Z,101531.03
2023-03-06T03:04:54.997Z,101526.31
2023-03-06T03:07:26.440Z,101517.16
2023-03-06T03:09:56.926Z,101516.13
2023-03-06T03:12:29.552Z,101517.44
2023-03-06T03:14:59.892Z,101516.38
2023-03-06T03:17:32.059Z,101507.91
2023-03-06T03:20:03.026Z,101514.78
2023-03-06T03:22:33.440Z,101499.22
2023-03-06T03:25:03.898Z,101495.50
2023-03-06T03:27:34.586Z,101494.28
2023-03-06T03:30:05.887Z,101487.69
2023-03-06T03:32:36.189Z,101485.63
2023-03-06T03:35:07.985Z,101488.97
2023-03-06T03:37:39.421Z,101472.38
2023-03-06T03:40:11.711Z,101474.69
2023-03-06T03:42:42.300Z,101464.53
2023-03-06T03:45:13.635Z,101462.44
2023-03-06T03:47:44.425Z,101456.66
2023-03-06T03:50:16.440Z,101458.13
2023-03-06T03:52:47.302Z,101447.13
2023-03-06T03:55:17.662Z,101433.25
2023-03-06T03:57:48.586Z,101435.53
2023-03-06T04:00:19.181Z,101429.75
2023-03-06T04:03:05.931Z,101423.09
2023-03-06T04:05:40.555Z,101411.91
2023-03-06T04:08:12.282Z,101414.41
2023-03-06T04:10:45.916Z,101403.22
2023-03-06T04:13:19.474Z,101400.09
2023-03-06T04:15:51.160Z,101395.97
2023-03-06T04:18:25.033Z,101391.19
2023-03-06T04:20:58.467Z,101385.38
2023-03-06T04:23:29.349Z,101378.75
2023-03-06T04:26:00.020Z,101373.81
2023-03-06T04:28:31.322Z,101366.34
2023-03-06T04:31:02.768Z,101360.53
2023-03-06T04:33:34.477Z,101356.59
2023-03-06T04:36:05.137Z,101359.72
2023-03-06T04:38:36.881Z,101347.66
2023-03-06T04:41:08.518Z,101335.59
2023-03-06T04:43:40.945Z,101329.78
2023-03-06T04:46:12.777Z,101324.00
2023-03-06T04:48:42.975Z,101323.59
2023-03-06T04:51:16.505Z,101322.34
2023-03-06T04:53:47.009Z,101306.53
2023-03-06T04:56:17.338Z,101301.78
2023-03-06T04:58:47.608Z,101300.31
2023-03-06T05:01:17.814Z,101292.84
2023-03-06T05:03:48.706Z,101287.00
2023-03-06T05:06:18.925Z,101276.81
2023-03-06T05:08:49.273Z,101280.78
2023-03-06T05:11:19.563Z,101278.69
2023-03-06T05:13:49.821Z,101261.00
2023-03-06T05:16:20.117Z,101267.03
2023-03-06T05:18:50.769Z,101258.78
2023-03-06T05:21:21.698Z,101253.75
2023-03-06T05:23:51.933Z,101253.75
2023-03-06T05:26:22.128Z,101240.88
2023-03-06T05:28:52.406Z,101240.44
2023-03-06T05:31:22.863Z,101236.69
2023-03-06T05:33:54.784Z,101236.28
2023-03-06T05:36:41.168Z,101228.16
2023-03-06T05:39:11.549Z,101227.97
2023-03-06T05:41:41.819Z,101220.66
2023-03-06T05:44:12.052Z,101207.13
2023-03-06T05:46:42.228Z,101208.78
2023-03-06T05:49:12.437Z,101202.34
2023-03-06T05:51:51.811Z,101195.88
2023-03-06T05:54:22.685Z,101189.22
2023-03-06T05:56:53.070Z,101184.63
2023-03-06T05:59:23.248Z,101174.44
2023-03-06T06:01:53.461Z,101165.06
2023-03-06T06:04:24.490Z,101162.97
2023-03-06T06:06:58.926Z,101154.22
2023-03-06T06:09:30.464Z,101152.97
2023-03-06T06:12:01.977Z,101144.63
2023-03-06T06:14:32.540Z,101137.13
2023-03-06T06:17:02.752Z,101135.03
2023-03-06T06:19:33.305Z,101129.19
2023-03-06T06:22:06.391Z,101137.94
2023-03-06T06:24:36.692Z,101130.44
2023-03-06T06:27:06.893Z,101133.75
2023-03-06T06:29:37.646Z,101123.53
2023-03-06T06:32:08.178Z,101119.56
2023-03-06T06:34:38.488Z,101116.66
2023-03-06T06:37:08.672Z,101132.53
2023-03-06T06:39:38.982Z,101121.69
2023-03-06T06:42:29.824Z,101102.28
2023-03-06T06:45:01.735Z,101102.06
2023-03-06T06:47:32.535Z,101099.78
2023-03-06T06:50:02.903Z,101099.53
2023-03-06T06:52:33.814Z,101092.88
2023-03-06T06:55:03.973Z,101085.38
2023-03-06T06:57:34.184Z,101089.53
2023-03-06T07:00:05.203Z,101084.50
2023-03-06T07:02:35.501Z,101077.19
2023-03-06T07:05:05.899Z,101072.16
2023-03-06T07:07:36.982Z,101068.41
2023-03-06T07:10:14.482Z,101065.28
2023-03-06T07:12:44.758Z,101055.06
2023-03-06T07:15:16.386Z,101055.66
2023-03-06T07:17:48.913Z,101045.22
2023-03-06T07:20:21.050Z,101045.59
2023-03-06T07:22:52.020Z,101047.25
2023-03-06T07:25:22.842Z,101046.00
2023-03-06T07:27:54.733Z,101032.84
2023-03-06T07:30:25.447Z,101040.53
2023-03-06T07:32:56.849Z,101045.53
2023-03-06T07:35:27.422Z,101030.94
2023-03-06T07:37:57.633Z,101035.91
2023-03-06T07:40:28.340Z,101035.47
2023-03-06T07:43:16.847Z,101038.59
2023-03-06T07:46:00.312Z,101020.00
2023-03-06T07:48:30.549Z,101028.75
2023-03-06T07:51:02.462Z,101018.28
2023-03-06T07:53:33.012Z,101018.66
2023-03-06T07:56:09.913Z,101017.38
2023-03-06T07:58:41.429Z,101016.72
2023-03-06T08:01:13.567Z,101023.59
2023-03-06T08:03:43.843Z,101014.78
2023-03-06T08:06:18.739Z,101012.47
2023-03-06T08:08:49.563Z,101015.56
2023-03-06T08:11:21.043Z,101016.75
2023-03-06T08:13:51.292Z,101009.22
2023-03-06T08:16:22.611Z,101020.69
2023-03-06T08:18:53.140Z,101002.94
2023-03-06T08:21:25.374Z,101003.75
2023-03-06T08:23:55.909Z,101003.34
2023-03-06T08:26:27.532Z,101003.09
2023-03-06T08:28:58.702Z,101002.63
2023-03-06T08:31:28.924Z,101009.50
2023-03-06T08:33:59.921Z,101000.31
2023-03-06T08:36:30.418Z,101004.44
2023-03-06T08:39:01.133Z,101011.09
2023-03-06T08:41:31.643Z,101006.28
2023-03-06T08:44:01.970Z,101007.72
2023-03-06T08:46:32.495Z,101009.34
2023-03-06T08:49:02.983Z,101009.72
2023-03-06T08:51:33.381Z,101011.16
2023-03-06T08:54:03.587Z,101018.03
2023-03-06T08:56:35.396Z,101014.25
2023-03-06T08:59:06.536Z,101021.34
2023-03-06T09:01:39.181Z,101005.44
2023-03-06T09:04:11.303Z,101023.38
2023-03-06T09:06:43.408Z,101023.97
2023-03-06T09:09:14.621Z,101018.34
2023-03-06T09:11:45.159Z,101018.69
2023-03-06T09:14:16.004Z,101032.06
2023-03-06T09:16:46.599Z,101039.97
2023-03-06T09:19:16.826Z,101038.31
2023-03-06T09:21:47.351Z,101039.41
2023-03-06T09:24:18.280Z,101050.88
2023-03-06T09:26:51.149Z,101050.97
2023-03-06T09:29:21.689Z,101047.72
2023-03-06T09:31:52.002Z,101046.50
2023-03-06T09:34:22.736Z,101051.53
2023-03-06T09:36:57.087Z,101054.69
2023-03-06T09:39:28.625Z,101059.50
2023-03-06T09:41:59.829Z,101060.56
2023-03-06T09:44:32.375Z,101065.38
2023-03-06T09:47:02.544Z,101071.25
2023-03-06T09:49:35.446Z,101072.28
2023-03-06T09:52:05.599Z,101071.69
2023-03-06T09:54:58.919Z,101074.84
2023-03-06T09:57:30.988Z,101068.81
2023-03-06T10:00:04.595Z,101074.84
2023-03-06T10:02:40.314Z,101083.78
2023-03-06T10:05:15.578Z,101088.84
2023-03-06T10:07:48.709Z,101087.16
2023-03-06T10:10:24.254Z,101090.94
2023-03-06T10:12:57.777Z,101085.94
2023-03-06T10:15:29.909Z,101084.28
2023-03-06T10:18:00.243Z,101056.25
2023-03-06T10:20:35.605Z,101084.09
2023-03-06T10:23:26.234Z,101079.72
2023-03-06T10:25:56.334Z,101081.59
2023-03-06T10:28:30.715Z,101086.38
2023-03-06T10:31:00.912Z,101090.97
2023-03-06T10:33:46.153Z,101088.91
2023-03-06T10:36:18.030Z,101083.47
2023-03-06T10:38:50.066Z,101081.59
2023-03-06T10:41:24.046Z,101081.38
2023-03-06T10:44:03.259Z,101085.16
2023-03-06T10:46:35.690Z,101086.81
2023-03-06T10:49:10.584Z,101090.56
2023-03-06T10:51:40.769Z,101098.91
2023-03-06T10:54:11.063Z,101114.31
2023-03-06T10:56:43.231Z,101112.47
2023-03-06T10:59:15.015Z,101110.16
2023-03-06T11:01:46.641Z,101117.91
2023-03-06T11:04:28.050Z,101121.66
2023-03-06T11:07:07.346Z,101123.56
2023-03-06T11:09:38.306Z,101124.81
2023-03-06T11:12:26.725Z,101130.25
2023-03-06T11:15:11.821Z,101139.41
2023-03-06T11:18:02.483Z,101143.38
2023-03-06T11:20:51.425Z,101133.34
2023-03-06T11:23:25.452Z,101138.94
2023-03-06T11:26:07.600Z,101141.38
2023-03-06T11:29:00.695Z,101150.06
2023-03-06T11:31:33.463Z,101150.50
2023-03-06T11:34:03.675Z,101147.53
2023-03-06T11:36:36.880Z,101150.06
2023-03-06T11:39:18.363Z,101149.00
2023-03-06T11:41:59.618Z,101156.06
2023-03-06T11:44:45.264Z,101157.13
2023-03-06T11:47:21.739Z,101163.38
2023-03-06T11:49:54.728Z,101165.25
2023-03-06T11:52:28.176Z,101174.22
2023-03-06T11:54:59.425Z,101175.28
2023-03-06T11:57:42.946Z,101173.41
2023-03-06T12:00:18.903Z,101170.06
2023-03-06T12:02:58.620Z,101180.09
2023-03-06T12:05:38.757Z,101179.25
2023-03-06T12:08:27.456Z,101173.84
2023-03-06T12:14:09.670Z,101169.28
2023-03-06T12:16:54.471Z,101172.84
2023-03-06T12:19:44.735Z,101177.28
2023-03-06T12:22:36.475Z,101173.75
2023-03-06T12:25:18.312Z,101182.72
2023-03-06T12:28:00.436Z,101181.69
2023-03-06T12:30:34.049Z,101191.69
2023-03-06T12:33:04.232Z,101196.94
2023-03-06T12:35:45.704Z,101199.44
2023-03-06T12:38:34.174Z,101206.13
2023-03-06T12:41:14.489Z,101211.78
2023-03-06T12:44:03.979Z,101216.56
2023-03-06T12:46:36.365Z,101223.25
2023-03-06T12:49:06.523Z,101222.44
2023-03-06T12:51:37.879Z,101221.56
2023-03-06T12:54:08.775Z,101225.75
2023-03-06T12:56:40.789Z,101223.28
2023-03-06T12:59:32.394Z,101232.06
2023-03-06T13:02:26.044Z,101235.63
2023-03-06T13:05:14.179Z,101239.63
2023-03-06T13:08:02.715Z,101243.75
2023-03-06T13:10:37.847Z,101248.78
2023-03-06T13:13:27.385Z,101244.78
2023-03-06T13:16:24.308Z,101247.25
2023-03-06T13:19:03.001Z,101256.16
2023-03-06T13:21:51.398Z,101254.06
2023-03-06T13:24:28.812Z,101253.22
2023-03-06T13:27:01.505Z,101263.19
2023-03-06T13:29:37.652Z,101256.91
2023-03-06T13:32:16.565Z,101266.84
2023-03-06T13:34:51.471Z,101266.84
2023-03-06T13:37:22.475Z,101268.47
2023-03-06T13:39:55.589Z,101266.19
2023-03-06T13:42:36.662Z,101277.56
2023-03-06T13:45:15.714Z,101275.22
2023-03-06T13:50:49.211Z,101281.19
2023-03-06T13:53:40.147Z,101279.13
2023-03-06T13:56:10.469Z,101276.16
2023-03-06T13:58:59.340Z,101277.38
2023-03-06T14:01:32.823Z,101288.56
2023-03-06T14:04:21.232Z,101287.28
2023-03-06T14:07:11.672Z,101287.50
2023-03-06T14:09:44.484Z,101290.59
2023-03-06T14:12:19.629Z,101293.88
2023-03-06T14:14:52.565Z,101292.22
2023-03-06T14:17:29.260Z,101299.66
2023-03-06T14:20:19.644Z,101288.03
2023-03-06T14:22:50.487Z,101293.44
2023-03-06T14:25:20.631Z,101294.25
2023-03-06T14:27:55.000Z,101221.25
2023-03-06T14:30:28.482Z,101305.91
2023-03-06T14:32:59.089Z,101307.13
2023-03-06T14:35:31.230Z,101302.13
2023-03-06T14:38:04.198Z,101304.94
2023-03-06T14:40:42.726Z,101307.03
2023-03-06T14:43:24.555Z,101305.34
2023-03-06T14:45:59.872Z,101305.75
2023-03-06T14:48:40.799Z,101305.09
2023-03-06T14:51:37.005Z,101301.13
2023-03-06T14:54:08.313Z,101307.19
2023-03-06T14:56:42.917Z,101310.25
2023-03-06T14:59:17.799Z,101307.31
2023-03-06T15:01:50.308Z,101308.91
2023-03-06T15:04:38.757Z,101309.28
2023-03-06T15:07:14.377Z,101316.28
2023-03-06T15:09:54.926Z,101321.41
2023-03-06T15:12:25.816Z,101325.72
2023-03-06T15:15:21.812Z,101320.25
2023-03-06T15:17:52.017Z,101326.84
2023-03-06T15:20:42.650Z,101324.75
2023-03-06T15:23:35.710Z,101321.78
2023-03-06T15:26:20.197Z,101321.50
2023-03-06T15:29:09.108Z,101329.97
2023-03-06T15:31:41.138Z,101323.44
2023-03-06T15:34:11.414Z,101326.41
2023-03-06T15:36:46.615Z,101327.72
2023-03-06T15:39:30.931Z,101336.81
2023-03-06T15:42:19.803Z,101333.09
2023-03-06T15:45:04.568Z,101338.94
2023-03-06T15:47:34.962Z,101333.09
2023-03-06T15:50:06.029Z,101331.84
2023-03-06T15:52:36.338Z,101333.53
2023-03-06T15:55:06.692Z,101338.13
2023-03-06T15:57:37.673Z,101334.75
2023-03-06T16:00:26.465Z,101345.56
2023-03-06T16:02:58.952Z,101338.50
2023-03-06T16:05:30.538Z,101341.38
2023-03-06T16:08:01.522Z,101338.84
2023-03-06T16:10:32.621Z,101344.63
2023-03-06T16:13:04.740Z,101331.16
2023-03-06T16:15:40.048Z,101342.31
2023-03-06T16:18:12.230Z,101340.00
2023-03-06T16:20:43.076Z,101338.34
2023-03-06T16:23:13.371Z,101331.66
2023-03-06T16:25:45.782Z,101335.38
2023-03-06T16:28:18.117Z,101336.59
2023-03-06T16:30:48.448Z,101342.38
2023-03-06T16:33:19.115Z,101340.22
2023-03-06T16:35:49.648Z,101338.56
2023-03-06T16:38:19.907Z,101338.19
2023-03-06T16:40:50.119Z,101337.34
2023-03-06T16:43:20.480Z,101333.16
2023-03-06T16:45:50.743Z,101329.81
2023-03-06T16:48:20.946Z,101324.81
2023-03-06T16:50:52.624Z,101313.19
2023-03-06T16:53:23.385Z,101321.47
2023-03-06T16:55:53.761Z,101312.72
2023-03-06T16:58:24.627Z,101309.38
2023-03-06T17:00:55.982Z,101314.75
2023-03-06T17:03:27.858Z,101316.78
2023-03-06T17:05:58.104Z,101304.34
2023-03-06T17:08:28.370Z,101305.75
2023-03-06T17:10:58.513Z,101294.97
2023-03-06T17:13:29.543Z,101286.44
2023-03-06T17:16:00.836Z,101292.63
2023-03-06T17:18:31.856Z,101282.25
2023-03-06T17:21:02.049Z,101287.63
2023-03-06T17:23:32.400Z,101285.16
2023-03-06T17:26:06.368Z,101278.44
2023-03-06T17:28:36.977Z,101292.13
2023-03-06T17:31:15.709Z,101283.19
2023-03-06T17:33:45.943Z,101281.69
2023-03-06T17:36:16.726Z,101279.84
2023-03-06T17:38:47.385Z,101276.69
2023-03-06T17:41:17.632Z,101273.81
2023-03-06T17:43:47.956Z,101275.03
2023-03-06T17:46:19.795Z,101283.28
2023-03-06T17:48:50.075Z,101269.81
2023-03-06T17:51:20.610Z,101269.34
2023-03-06T17:53:50.954Z,101269.56
2023-03-06T17:56:21.201Z,101267.03
2023-03-06T17:58:51.385Z,101268.06
2023-03-06T18:01:23.442Z,101262.84
2023-03-06T18:03:53.723Z,101242.34
2023-03-06T18:06:24.776Z,101254.13
2023-03-06T18:08:55.990Z,101255.34
2023-03-06T18:11:26.422Z,101250.31
2023-03-06T18:13:56.782Z,101250.31
2023-03-06T18:16:28.504Z,101249.50
2023-03-06T18:18:58.917Z,101247.00
2023-03-06T18:21:30.148Z,101245.31
2023-03-06T18:24:00.710Z,101241.63
2023-03-06T18:26:31.943Z,101238.25
2023-03-06T18:29:04.905Z,101240.69
2023-03-06T18:31:36.892Z,101242.34
2023-03-06T18:34:11.979Z,101239.03
2023-03-06T18:36:44.009Z,101240.03
2023-03-06T18:39:15.928Z,101236.31
2023-03-06T18:41:46.525Z,101240.03
2023-03-06T18:44:17.748Z,101240.22
2023-03-06T18:46:47.983Z,101237.66
2023-03-06T18:49:18.134Z,101241.41
2023-03-06T18:51:49.564Z,101235.66
2023-03-06T18:54:20.492Z,101235.56
2023-03-06T18:56:50.639Z,101230.47
2023-03-06T18:59:21.588Z,101213.53
2023-03-06T19:01:53.436Z,101217.13
2023-03-06T19:04:27.359Z,101211.50
2023-03-06T19:06:57.873Z,101207.31
2023-03-06T19:09:28.614Z,101211.59
2023-03-06T19:12:04.888Z,101209.09
2023-03-06T19:14:35.111Z,101204.47
2023-03-06T19:17:05.307Z,101207.53
2023-03-06T19:19:35.582Z,101207.91
2023-03-06T19:22:05.777Z,101207.38
2023-03-06T19:24:36.087Z,101201.19
2023-03-06T19:27:06.273Z,101197.00
2023-03-06T19:29:36.472Z,101203.25
2023-03-06T19:32:06.883Z,101186.50
2023-03-06T19:34:37.051Z,101193.84
2023-03-06T19:37:07.206Z,101187.75
2023-03-06T19:39:37.389Z,101189.69
2023-03-06T19:42:08.230Z,101186.59
2023-03-06T19:44:38.640Z,101192.38
2023-03-06T19:47:08.792Z,101194.78
2023-03-06T19:49:40.151Z,101195.34
2023-03-06T19:52:10.449Z,101199.25
2023-03-06T19:54:40.630Z,101190.53
2023-03-06T19:57:10.845Z,101199.97
2023-03-06T19:59:41.434Z,101196.00
2023-03-06T20:02:14.721Z,101189.97
2023-03-06T20:04:44.881Z,101196.53
2023-03-06T20:07:15.098Z,101190.78
2023-03-06T20:09:45.224Z,101191.88
2023-03-06T20:12:16.117Z,101191.16
2023-03-06T20:14:47.551Z,101191.44
2023-03-06T20:17:18.908Z,101189.84
2023-03-06T20:19:49.363Z,101193.56
2023-03-06T20:22:20.612Z,101200.19
2023-03-06T20:24:51.611Z,101197.59
2023-03-06T20:27:21.906Z,101208.03
2023-03-06T20:29:52.644Z,101205.56
2023-03-06T20:32:22.780Z,101198.69
2023-03-06T20:34:53.693Z,101197.19
2023-03-06T20:37:23.877Z,101197.38
2023-03-06T20:39:54.210Z,101196.28
2023-03-06T20:42:24.753Z,101196.47
2023-03-06T20:44:59.923Z,101202.75
2023-03-06T20:47:38.053Z,101193.31
2023-03-06T20:50:08.621Z,101190.91
2023-03-06T20:52:39.352Z,101193.84
2023-03-06T20:55:09.827Z,101196.81
2023-03-06T20:57:39.985Z,101196.00
2023-03-06T21:00:10.553Z,101201.31
2023-03-06T21:02:40.768Z,101194.59
2023-03-06T21:05:11.293Z,101198.69
2023-03-06T21:07:41.725Z,101206.94
2023-03-06T21:10:13.034Z,101207.53
2023-03-06T21:12:43.237Z,101210.75
2023-03-06T21:15:14.453Z,101211.31
2023-03-06T21:17:45.079Z,101215.50
2023-03-06T21:20:15.330Z,101220.97
2023-03-06T21:22:45.534Z,101217.72
2023-03-06T21:25:15.955Z,101219.84
2023-03-06T21:27:46.425Z,101227.38
2023-03-06T21:30:16.601Z,101217.09
2023-03-06T21:32:47.002Z,101225.63
2023-03-06T21:35:17.782Z,101219.13
2023-03-06T21:37:48.518Z,101230.63
2023-03-06T21:40:18.835Z,101228.03
2023-03-06T21:42:49.122Z,101225.34
2023-03-06T21:45:19.457Z,101228.41
2023-03-06T21:47:50.356Z,101232.47
2023-03-06T21:50:20.648Z,101232.69
2023-03-06T21:52:51.050Z,101232.97
2023-03-06T21:55:21.351Z,101236.75
2023-03-06T21:57:52.538Z,101247.16
2023-03-06T22:00:25.135Z,101243.06
2023-03-06T22:02:55.473Z,101249.13
2023-03-06T22:05:26.429Z,101244.41
2023-03-06T22:07:56.743Z,101253.13
2023-03-06T22:10:28.248Z,101255.56
2023-03-06T22:12:58.561Z,101254.41
2023-03-06T22:15:28.755Z,101255.63
2023-03-06T22:18:01.592Z,101258.69
2023-03-06T22:20:31.783Z,101262.75
2023-03-06T22:23:01.943Z,101270.81
2023-03-06T22:25:32.734Z,101271.47
2023-03-06T22:28:03.630Z,101278.16
2023-03-06T22:30:33.828Z,101275.28
2023-03-06T22:33:04.219Z,101275.75
2023-03-06T22:35:34.608Z,101279.94
2023-03-06T22:38:06.008Z,101283.31
2023-03-06T22:40:36.237Z,101281.25
2023-03-06T22:43:06.521Z,101284.97
2023-03-06T22:45:36.793Z,101292.94
2023-03-06T22:48:11.071Z,101294.69
2023-03-06T22:50:41.732Z,101296.63
2023-03-06T22:53:12.732Z,101294.09
2023-03-06T22:55:43.012Z,101303.22
2023-03-06T22:58:13.553Z,101313.63
2023-03-06T23:00:43.915Z,101304.16
2023-03-06T23:03:14.600Z,101305.47
2023-03-06T23:05:44.866Z,101299.69
2023-03-06T23:08:15.123Z,101308.44
2023-03-06T23:10:45.099Z,101315.31
2023-03-06T23:13:33.776Z,101316.81
2023-03-06T23:16:23.202Z,101327.94
2023-03-06T23:19:12.235Z,101326.16
2023-03-06T23:22:00.465Z,101325.69
2023-03-06T23:24:49.287Z,101327.44
2023-03-06T23:27:20.730Z,101334.22
2023-03-06T23:29:51.851Z,101332.38
2023-03-06T23:32:22.260Z,101338.88
2023-03-06T23:34:52.479Z,101349.44
2023-03-06T23:37:22.980Z,101353.47
2023-03-06T23:39:53.423Z,101349.56
2023-03-06T23:42:24.077Z,101356.44
2023-03-06T23:44:54.330Z,101349.00
2023-03-06T23:47:24.579Z,101353.19
2023-03-06T23:49:54.805Z,101357.28
2023-03-06T23:52:25.043Z,101354.88
2023-03-06T23:54:55.628Z,101354.34
2023-03-06T23:57:26.432Z,101363.53
2023-03-06T23:59:57.051Z,101360.13
